Terminal Aerodrome Forecast
Issued by NWS Burlington, VT

Home | Current Version | Previous Version | Text Only | Print | Product List | Glossary On
Versions: 1 2 3 4 5 6 7 8 9 10 11 12 13 14 15 16 17 18 19 20 21 22 23 24 25
132
FTUS41 KBTV 191141
TAFBTV
TAF
KBTV 191141Z 1912/2012 18007KT P6SM OVC035
     FM192000 19006KT P6SM BKN040
     FM200100 18008KT P6SM BKN070
     FM200500 18015G25KT P6SM BKN090=

USA.gov is the U.S. government's official web portal to all federal, state and local government web resources and services.